createdAt,value
2017-05-28T00:00:30.596Z,72
2017-05-28T00:01:38.078Z,72.8
2017-05-28T00:02:45.562Z,71.3
2017-05-28T00:03:53.349Z,71
2017-05-28T00:05:00.827Z,72.8
2017-05-28T00:06:08.311Z,71.6
2017-05-28T00:07:15.793Z,72.5
2017-05-28T00:08:23.274Z,72.4
2017-05-28T00:09:30.728Z,71.6
2017-05-28T00:10:38.208Z,72.3
2017-05-28T00:11:45.690Z,71.3
2017-05-28T00:12:53.180Z,72.6
2017-05-28T00:14:00.668Z,71.6
2017-05-28T00:15:08.111Z,71.8
2017-05-28T00:16:15.267Z,71.7
2017-05-28T00:17:22.750Z,71.9
2017-05-28T00:18:30.232Z,72.9
2017-05-28T00:19:37.716Z,72.6
2017-05-28T00:20:45.500Z,73.5
2017-05-28T00:21:52.988Z,73
2017-05-28T00:23:00.470Z,73.4
2017-05-28T00:24:07.947Z,72.6
2017-05-28T00:25:15.429Z,72.4
2017-05-28T00:26:23.217Z,73.1
2017-05-28T00:27:30.369Z,72.6
2017-05-28T00:28:37.854Z,73.5
2017-05-28T00:29:45.339Z,73.9
2017-05-28T00:30:52.824Z,73.6
2017-05-28T00:32:00.282Z,73.5
2017-05-28T00:33:07.766Z,73.8
2017-05-28T00:34:15.267Z,73.4
2017-05-28T00:35:22.740Z,73.1
2017-05-28T00:36:29.897Z,72.4
2017-05-28T00:37:37.681Z,72.8
2017-05-28T00:38:45.164Z,73.1
2017-05-28T00:39:52.653Z,73.6
2017-05-28T00:41:00.133Z,72.3
2017-05-28T00:42:07.292Z,72.3
2017-05-28T00:43:15.074Z,73.1
2017-05-28T00:44:22.558Z,72.8
2017-05-28T00:45:29.722Z,72.3
2017-05-28T00:46:37.206Z,72.3
2017-05-28T00:47:44.689Z,73
2017-05-28T00:48:52.469Z,73.1
2017-05-28T00:49:59.958Z,74.2
2017-05-28T00:51:07.455Z,73.8
2017-05-28T00:52:14.604Z,75.3
2017-05-28T00:53:22.094Z,75.6
2017-05-28T00:54:29.562Z,75.5
2017-05-28T00:55:37.040Z,74.5
2017-05-28T00:56:44.526Z,74.3
2017-05-28T00:57:52.016Z,74
2017-05-28T00:58:59.494Z,74.1
2017-05-28T01:00:07.278Z,74.2
2017-05-28T01:01:14.760Z,74.6
2017-05-28T01:02:22.239Z,73.6
2017-05-28T01:03:29.722Z,73.8
2017-05-28T01:04:37.204Z,74.2
2017-05-28T01:05:44.982Z,73.8
2017-05-28T01:06:52.467Z,73.9
2017-05-28T01:07:59.952Z,73.6
2017-05-28T01:09:07.438Z,73.3
2017-05-28T01:10:14.917Z,74.2
2017-05-28T01:11:22.363Z,73.2
2017-05-28T01:12:29.841Z,74.3
2017-05-28T01:13:37.330Z,73
2017-05-28T01:14:44.818Z,73.8
2017-05-28T01:15:52.313Z,73.5
2017-05-28T01:17:00.099Z,75
2017-05-28T01:18:07.579Z,74
2017-05-28T01:19:15.056Z,73.8
2017-05-28T01:20:22.546Z,73.4
2017-05-28T01:21:30.033Z,74.7
2017-05-28T01:22:37.492Z,75.3
2017-05-28T01:23:44.975Z,74.2
2017-05-28T01:24:52.455Z,74.6
2017-05-28T01:25:59.941Z,74.1
2017-05-28T01:27:07.427Z,74.3
2017-05-28T01:28:15.206Z,74.7
2017-05-28T01:29:22.684Z,73.5
2017-05-28T01:30:30.179Z,73.2
2017-05-28T01:31:37.336Z,75
2017-05-28T01:32:44.823Z,74.3
2017-05-28T01:33:52.612Z,74.4
2017-05-28T01:35:00.094Z,75.1
2017-05-28T01:36:07.585Z,74.2
2017-05-28T01:37:15.065Z,75.5
2017-05-28T01:38:22.555Z,73.9
2017-05-28T01:39:30.013Z,75.2
2017-05-28T01:40:37.495Z,75.8
2017-05-28T01:41:44.976Z,74.9
2017-05-28T01:42:52.460Z,76
2017-05-28T01:43:59.944Z,76
2017-05-28T01:45:07.401Z,74.4
2017-05-28T01:46:14.572Z,74.1
2017-05-28T01:47:22.052Z,74.8
2017-05-28T01:48:29.528Z,74.8
2017-05-28T01:49:37.006Z,74
2017-05-28T01:50:44.787Z,74.8
2017-05-28T01:51:51.936Z,75.1
2017-05-28T01:52:59.422Z,74.5
2017-05-28T01:54:06.902Z,76
2017-05-28T01:55:14.379Z,74.6
2017-05-28T01:56:22.217Z,74.7
2017-05-28T01:57:29.695Z,75.6
2017-05-28T01:58:37.177Z,75.1
2017-05-28T01:59:44.661Z,75.2
2017-05-28T02:00:52.139Z,76
2017-05-28T02:01:59.918Z,75.6
2017-05-28T02:03:07.401Z,76.2
2017-05-28T02:04:15.107Z,76
2017-05-28T02:05:22.592Z,75.6
2017-05-28T02:06:30.070Z,76.5
2017-05-28T02:07:37.902Z,75.9
2017-05-28T02:08:45.397Z,75.3
2017-05-28T02:09:52.566Z,74.8
2017-05-28T02:11:00.047Z,76
2017-05-28T02:12:07.532Z,76.2
2017-05-28T02:13:15.361Z,75.8
2017-05-28T02:14:22.843Z,76.4
2017-05-28T02:15:29.997Z,77
2017-05-28T02:16:37.477Z,76.4
2017-05-28T02:17:45.013Z,76.5
2017-05-28T02:18:52.798Z,75.8
2017-05-28T02:20:00.282Z,75.1
2017-05-28T02:21:07.764Z,76.4
2017-05-28T02:22:15.244Z,75.7
2017-05-28T02:23:22.727Z,76.7
2017-05-28T02:24:30.563Z,76
2017-05-28T02:25:38.046Z,75.6
2017-05-28T02:26:45.200Z,76.9
2017-05-28T02:27:52.683Z,76.6
2017-05-28T02:29:00.170Z,76.1
2017-05-28T02:30:08.005Z,76.8
2017-05-28T02:31:15.484Z,77.4
2017-05-28T02:32:22.638Z,76.8
2017-05-28T02:33:30.125Z,77.3
2017-05-28T02:34:36.947Z,78.1
2017-05-28T02:35:44.729Z,77.4
2017-05-28T02:36:52.219Z,78.5
2017-05-28T02:37:59.368Z,77.4
2017-05-28T02:39:06.851Z,77.6
2017-05-28T02:40:14.005Z,76.1
2017-05-28T02:41:21.452Z,77.7
2017-05-28T02:42:28.998Z,78.6
2017-05-28T02:43:36.484Z,78.4
2017-05-28T02:44:43.964Z,78.3
2017-05-28T02:45:51.444Z,79.3
2017-05-28T02:46:59.224Z,79.3
2017-05-28T02:48:06.709Z,78.8
2017-05-28T02:49:14.185Z,79.1
2017-05-28T02:50:21.668Z,79
2017-05-28T02:51:29.161Z,80.5
2017-05-28T02:52:36.940Z,79
2017-05-28T02:53:44.419Z,79.9
2017-05-28T02:54:51.909Z,78.9
2017-05-28T02:55:59.390Z,78.6
2017-05-28T02:57:06.536Z,79.5
2017-05-28T02:58:14.327Z,79
2017-05-28T02:59:21.807Z,79.1
2017-05-28T03:00:29.294Z,79
2017-05-28T03:01:36.772Z,79.5
2017-05-28T03:02:44.257Z,78.4
2017-05-28T03:03:52.039Z,81.2
2017-05-28T03:04:59.515Z,81
2017-05-28T03:06:06.998Z,81.3
2017-05-28T03:07:14.483Z,81.9
2017-05-28T03:08:21.970Z,81.3
2017-05-28T03:09:29.761Z,81.9
2017-05-28T03:10:37.253Z,82
2017-05-28T03:11:44.731Z,81
2017-05-28T03:12:52.211Z,81
2017-05-28T03:13:59.691Z,81
2017-05-28T03:15:07.476Z,81
2017-05-28T03:16:14.622Z,81
2017-05-28T03:17:22.108Z,82
2017-05-28T03:18:29.596Z,81
2017-05-28T03:19:37.087Z,81.5
2017-05-28T03:20:44.866Z,81
2017-05-28T03:21:52.354Z,81
2017-05-28T03:22:59.837Z,79.2
2017-05-28T03:24:07.321Z,80.1
2017-05-28T03:25:14.798Z,80
2017-05-28T03:26:22.596Z,80.9
2017-05-28T03:27:30.085Z,80.7
2017-05-28T03:28:37.567Z,80.4
2017-05-28T03:29:45.046Z,79.9
2017-05-28T03:30:52.542Z,80.9
2017-05-28T03:32:00.326Z,80.2
2017-05-28T03:33:07.806Z,80.4
2017-05-28T03:34:14.952Z,80.3
2017-05-28T03:35:22.105Z,79.7
2017-05-28T03:36:29.584Z,79.7
2017-05-28T03:37:37.365Z,81
2017-05-28T03:38:44.903Z,78
2017-05-28T03:39:52.381Z,80.5
2017-05-28T03:40:59.866Z,77.8
2017-05-28T03:42:07.346Z,79.8
2017-05-28T03:43:15.132Z,80.9
2017-05-28T03:44:22.614Z,80.9
2017-05-28T03:45:30.094Z,80.9
2017-05-28T03:46:37.577Z,80.9
2017-05-28T03:47:45.054Z,81.5
2017-05-28T03:48:52.837Z,81
2017-05-28T03:50:00.321Z,81.2
2017-05-28T03:51:07.804Z,81.4
2017-05-28T03:52:15.281Z,81
2017-05-28T03:53:22.766Z,81.5
2017-05-28T03:54:30.546Z,79.6
2017-05-28T03:55:38.026Z,80
2017-05-28T03:56:45.505Z,78.1
2017-05-28T03:57:52.985Z,80.4
2017-05-28T03:59:00.465Z,81
2017-05-28T04:00:08.250Z,81
2017-05-28T04:01:15.727Z,79.8
2017-05-28T04:02:23.218Z,78.6
2017-05-28T04:03:30.693Z,81
2017-05-28T04:04:38.176Z,78.2
2017-05-28T04:05:45.955Z,80.9
2017-05-28T04:06:53.432Z,79.2
2017-05-28T04:08:00.916Z,80.9
2017-05-28T04:09:08.395Z,78.7
2017-05-28T04:10:15.878Z,80.3
2017-05-28T04:11:23.665Z,80.9
2017-05-28T04:12:31.139Z,80.2
2017-05-28T04:13:38.290Z,81
2017-05-28T04:14:45.779Z,81
2017-05-28T04:15:53.261Z,81
2017-05-28T04:17:00.711Z,80.3
2017-05-28T04:18:08.192Z,79.6
2017-05-28T04:19:15.678Z,81.6
2017-05-28T04:20:23.163Z,79.9
2017-05-28T04:21:30.644Z,79.8
2017-05-28T04:22:38.424Z,81
2017-05-28T04:23:45.906Z,81
2017-05-28T04:24:53.387Z,81
2017-05-28T04:26:00.866Z,81
2017-05-28T04:27:08.024Z,81
2017-05-28T04:28:15.810Z,79.4
2017-05-28T04:29:22.954Z,82.1
2017-05-28T04:30:30.432Z,81.3
2017-05-28T04:31:37.640Z,82.2
2017-05-28T04:32:45.122Z,81.4
2017-05-28T04:33:52.574Z,80.7
2017-05-28T04:35:00.060Z,81.6
2017-05-28T04:36:07.213Z,81.9
2017-05-28T04:37:14.695Z,80.7
2017-05-28T04:38:21.851Z,81.1
2017-05-28T04:39:29.628Z,81.7
2017-05-28T04:40:37.117Z,82.9
2017-05-28T04:41:44.596Z,82
2017-05-28T04:42:52.077Z,81.2
2017-05-28T04:43:59.565Z,80.8
2017-05-28T04:45:07.356Z,81.2
2017-05-28T04:46:14.850Z,81.2
2017-05-28T04:47:22.331Z,81.6
2017-05-28T04:48:29.160Z,81.3
2017-05-28T04:49:36.637Z,83.2
2017-05-28T04:50:44.417Z,84.1
2017-05-28T04:51:51.895Z,83.7
2017-05-28T04:52:59.045Z,84.3
2017-05-28T04:54:06.543Z,83.9
2017-05-28T04:55:14.021Z,83.4
2017-05-28T04:56:21.809Z,82.5
2017-05-28T04:57:29.292Z,81.3
2017-05-28T04:58:36.772Z,83.8
2017-05-28T04:59:44.255Z,84.2
2017-05-28T05:00:51.737Z,84
2017-05-28T05:01:59.519Z,82.8
2017-05-28T05:03:07.000Z,83.1
2017-05-28T05:04:14.479Z,82.7
2017-05-28T05:05:21.965Z,83.9
2017-05-28T05:06:29.455Z,84.2
2017-05-28T05:07:37.238Z,84.3
2017-05-28T05:08:44.716Z,84.5
2017-05-28T05:09:52.205Z,84.3
2017-05-28T05:10:59.688Z,83.3
2017-05-28T05:12:06.863Z,84.7
2017-05-28T05:13:14.645Z,84.1
2017-05-28T05:14:21.791Z,83.9
2017-05-28T05:15:29.272Z,84.4
2017-05-28T05:16:36.426Z,84.5
2017-05-28T05:17:43.907Z,85
2017-05-28T05:18:51.369Z,84.6
2017-05-28T05:19:58.523Z,85.1
2017-05-28T05:21:06.340Z,85.6
2017-05-28T05:22:13.811Z,84.7
2017-05-28T05:23:21.293Z,84.5
2017-05-28T05:24:29.079Z,82.2
2017-05-28T05:25:36.560Z,84.5
2017-05-28T05:26:44.044Z,85
2017-05-28T05:27:51.526Z,84.8
2017-05-28T05:28:59.005Z,84.9
2017-05-28T05:30:06.459Z,84.4
2017-05-28T05:31:13.939Z,84
2017-05-28T05:32:21.420Z,84
2017-05-28T05:33:28.906Z,83.7
2017-05-28T05:34:36.395Z,83.4
2017-05-28T05:35:44.174Z,83
2017-05-28T05:36:51.653Z,83.1
2017-05-28T05:37:59.142Z,83.2
2017-05-28T05:39:06.625Z,83.3
2017-05-28T05:40:13.785Z,83.3
2017-05-28T05:41:21.577Z,83.2
2017-05-28T05:42:29.088Z,83.4
2017-05-28T05:43:36.569Z,82.5
2017-05-28T05:44:44.053Z,82.4
2017-05-28T05:45:51.790Z,82.1
2017-05-28T05:46:59.570Z,82.2
2017-05-28T05:48:07.055Z,82.1
2017-05-28T05:49:14.216Z,81.6
2017-05-28T05:50:21.698Z,81.3
2017-05-28T05:51:29.193Z,81.1
2017-05-28T05:52:36.970Z,81
2017-05-28T05:53:44.130Z,80.6
2017-05-28T05:54:51.286Z,80.9
2017-05-28T05:55:58.775Z,80.3
2017-05-28T05:57:06.280Z,79.9
2017-05-28T05:58:14.063Z,80.1
2017-05-28T05:59:21.546Z,80.8
2017-05-28T06:00:28.700Z,81.1
2017-05-28T06:01:35.849Z,80.5
2017-05-28T06:02:43.332Z,81.4
2017-05-28T06:03:51.114Z,79.2
2017-05-28T06:04:58.594Z,78.6
2017-05-28T06:06:06.075Z,78.9
2017-05-28T06:07:13.585Z,78.9
2017-05-28T06:08:21.070Z,78.8
2017-05-28T06:09:28.855Z,80.5
2017-05-28T06:10:36.009Z,79.5
2017-05-28T06:11:43.488Z,77.7
2017-05-28T06:12:51.381Z,78.5
2017-05-28T06:13:58.865Z,76.9
2017-05-28T06:15:06.655Z,76.7
2017-05-28T06:16:14.135Z,76.5
2017-05-28T06:17:21.287Z,75
2017-05-28T06:18:28.768Z,75.7
2017-05-28T06:19:36.256Z,77.6
2017-05-28T06:20:44.045Z,76.2
2017-05-28T06:21:50.881Z,70.9
2017-05-28T06:22:58.366Z,72.1
2017-05-28T06:24:05.864Z,73.2
2017-05-28T06:25:13.352Z,70.6
2017-05-28T06:26:21.139Z,69.3
2017-05-28T06:27:28.691Z,73.7
2017-05-28T06:28:36.171Z,69.3
2017-05-28T06:29:43.658Z,70.2
2017-05-28T06:30:51.145Z,68.8
2017-05-28T06:31:58.928Z,71.2
2017-05-28T06:33:06.416Z,66.6
2017-05-28T06:34:13.893Z,66
2017-05-28T06:35:21.383Z,69.7
2017-05-28T06:36:28.536Z,68.9
2017-05-28T06:37:36.320Z,66.8
2017-05-28T06:38:43.812Z,63.1
2017-05-28T06:39:51.309Z,65.8
2017-05-28T06:40:58.466Z,64.4
2017-05-28T06:42:05.956Z,64.6
2017-05-28T06:43:13.742Z,62.6
2017-05-28T06:44:21.232Z,63.5
2017-05-28T06:45:28.716Z,64.3
2017-05-28T06:46:36.202Z,63
2017-05-28T06:47:43.695Z,61.6
2017-05-28T06:48:51.484Z,63
2017-05-28T06:49:58.672Z,63.6
2017-05-28T06:51:06.162Z,62.4
2017-05-28T06:52:13.653Z,63.8
2017-05-28T06:53:21.139Z,61.4
2017-05-28T06:54:28.927Z,62.5
2017-05-28T06:55:36.413Z,63
2017-05-28T06:56:43.906Z,63.4
2017-05-28T06:57:51.391Z,58.3
2017-05-28T06:58:58.884Z,60.1
2017-05-28T07:00:06.674Z,60
2017-05-28T07:01:14.158Z,61.5
2017-05-28T07:02:21.651Z,58.5
2017-05-28T07:03:29.136Z,59.9
2017-05-28T07:04:36.624Z,60.5
2017-05-28T07:05:44.077Z,59.6
2017-05-28T07:06:51.564Z,61.2
2017-05-28T07:07:59.055Z,59.4
2017-05-28T07:09:06.544Z,61.2
2017-05-28T07:10:14.037Z,61.1
2017-05-28T07:11:21.493Z,57.9
2017-05-28T07:12:28.664Z,57.1
2017-05-28T07:13:36.155Z,58
2017-05-28T07:14:43.647Z,56.5
2017-05-28T07:15:51.136Z,58.3
2017-05-28T07:16:58.932Z,60
2017-05-28T07:18:06.420Z,59.8
2017-05-28T07:19:13.908Z,57.5
2017-05-28T07:20:21.404Z,55
2017-05-28T07:21:28.897Z,56.5
2017-05-28T07:22:36.686Z,56.3
2017-05-28T07:23:44.205Z,59.6
2017-05-28T07:24:51.368Z,56.6
2017-05-28T07:25:58.869Z,57
2017-05-28T07:27:06.358Z,58.6
2017-05-28T07:28:14.195Z,58.2
2017-05-28T07:29:21.345Z,58.3
2017-05-28T07:30:28.835Z,57.2
2017-05-28T07:31:36.329Z,57
2017-05-28T07:32:43.817Z,58.8
2017-05-28T07:33:51.608Z,57
2017-05-28T07:34:59.111Z,53.9
2017-05-28T07:36:06.597Z,57.9
2017-05-28T07:37:14.095Z,56.9
2017-05-28T07:38:21.582Z,56.5
2017-05-28T07:39:29.524Z,55.6
2017-05-28T07:40:36.678Z,55.1
2017-05-28T07:41:44.165Z,51.6
2017-05-28T07:42:51.322Z,54.1
2017-05-28T07:43:58.812Z,56.3
2017-05-28T07:45:06.601Z,56.7
2017-05-28T07:46:14.092Z,54.1
2017-05-28T07:47:21.579Z,54.9
2017-05-28T07:48:29.074Z,54.7
2017-05-28T07:49:36.574Z,52.9
2017-05-28T07:50:44.422Z,51.4
2017-05-28T07:51:51.921Z,52
2017-05-28T07:52:59.427Z,53.6
2017-05-28T07:54:06.934Z,54.5
2017-05-28T07:55:14.433Z,50.6
2017-05-28T07:56:22.280Z,52.2
2017-05-28T07:57:29.768Z,54.2
2017-05-28T07:58:37.260Z,52.7
2017-05-28T07:59:44.756Z,49.1
2017-05-28T08:00:52.248Z,50.6
2017-05-28T08:02:00.043Z,52.1
2017-05-28T08:03:07.533Z,51.9
2017-05-28T08:04:15.021Z,49.1
2017-05-28T08:05:22.193Z,51.9
2017-05-28T08:06:29.692Z,53.4
2017-05-28T08:07:37.535Z,52.2
2017-05-28T08:08:45.041Z,51.1
2017-05-28T08:09:52.533Z,52.5
2017-05-28T08:11:00.023Z,51.7
2017-05-28T08:12:07.516Z,49.6
2017-05-28T08:13:14.990Z,50.9
2017-05-28T08:14:22.479Z,49.6
2017-05-28T08:15:29.974Z,49.7
2017-05-28T08:16:37.150Z,49.6
2017-05-28T08:17:44.640Z,47.3
2017-05-28T08:18:52.485Z,50.8
2017-05-28T08:19:59.977Z,50.9
2017-05-28T08:21:07.471Z,48.7
2017-05-28T08:22:14.631Z,48.9
2017-05-28T08:23:22.121Z,49.6
2017-05-28T08:24:29.631Z,50.6
2017-05-28T08:25:37.126Z,51.8
2017-05-28T08:26:44.619Z,49.6
2017-05-28T08:27:52.109Z,49.7
2017-05-28T08:28:59.601Z,49.2
2017-05-28T08:30:07.441Z,48.7
2017-05-28T08:31:14.932Z,50.3
2017-05-28T08:32:22.434Z,48.5
2017-05-28T08:33:29.926Z,51
2017-05-28T08:34:37.418Z,47.4
2017-05-28T08:35:45.264Z,49.8
2017-05-28T08:36:52.759Z,48.9
2017-05-28T08:38:00.253Z,49.8
2017-05-28T08:39:07.749Z,50
2017-05-28T08:40:15.237Z,49.6
2017-05-28T08:41:23.078Z,46.5
2017-05-28T08:42:30.575Z,50.1
2017-05-28T08:43:38.066Z,49
2017-05-28T08:44:45.554Z,51
2017-05-28T08:45:53.049Z,47.3
2017-05-28T08:47:00.890Z,47.8
2017-05-28T08:48:08.793Z,49.4
2017-05-28T08:49:16.286Z,49.4
2017-05-28T08:50:23.779Z,47.6
2017-05-28T08:51:31.272Z,47.2
2017-05-28T08:52:39.115Z,46.4
2017-05-28T08:53:46.611Z,47.6
2017-05-28T08:54:54.099Z,47.4
2017-05-28T08:56:01.594Z,45.4
2017-05-28T08:57:09.096Z,47.7
2017-05-28T08:58:16.891Z,48.3
2017-05-28T08:59:24.386Z,46
2017-05-28T09:00:31.882Z,46.9
2017-05-28T09:01:39.372Z,46.2
2017-05-28T09:02:46.863Z,46.2
2017-05-28T09:03:54.327Z,48.3
2017-05-28T09:05:01.817Z,48.9
2017-05-28T09:06:09.311Z,49.4
2017-05-28T09:07:16.802Z,45.3
2017-05-28T09:08:24.295Z,44.6
2017-05-28T09:09:32.089Z,43.8
2017-05-28T09:10:39.586Z,45.4
2017-05-28T09:11:47.093Z,46.1
2017-05-28T09:12:54.595Z,46
2017-05-28T09:14:02.094Z,45.3
2017-05-28T09:15:09.944Z,43.6
2017-05-28T09:16:17.436Z,47.3
2017-05-28T09:17:24.926Z,45.6
2017-05-28T09:18:32.414Z,44.5
2017-05-28T09:19:39.906Z,45
2017-05-28T09:20:47.754Z,44.5
2017-05-28T09:21:55.249Z,45.5
2017-05-28T09:23:02.741Z,44.5
2017-05-28T09:24:10.234Z,44.1
2017-05-28T09:25:17.724Z,44.2
2017-05-28T09:26:25.194Z,44
2017-05-28T09:27:32.687Z,45.8
2017-05-28T09:28:40.179Z,42.7
2017-05-28T09:29:47.679Z,44
2017-05-28T09:30:55.169Z,45
2017-05-28T09:32:03.021Z,44.5
2017-05-28T09:33:10.516Z,45.1
2017-05-28T09:34:18.006Z,40.9
2017-05-28T09:35:25.498Z,43
2017-05-28T09:36:32.660Z,40.7
2017-05-28T09:37:40.454Z,42.2
2017-05-28T09:38:47.949Z,42.8
2017-05-28T09:39:55.676Z,42.5
2017-05-28T09:41:02.845Z,42.5
2017-05-28T09:42:10.335Z,40.5
2017-05-28T09:43:18.128Z,41.8
2017-05-28T09:44:25.623Z,41
2017-05-28T09:45:33.119Z,42.5
2017-05-28T09:46:40.615Z,43.9
2017-05-28T09:47:48.111Z,43.6
2017-05-28T09:48:55.577Z,42.7
2017-05-28T09:50:03.083Z,41.4
2017-05-28T09:51:10.585Z,44.2
2017-05-28T09:52:18.077Z,40.3
2017-05-28T09:53:25.573Z,41.4
2017-05-28T09:54:33.379Z,41.3
2017-05-28T09:55:40.869Z,40.7
2017-05-28T09:56:48.366Z,42.2
2017-05-28T09:57:55.866Z,39.4
2017-05-28T09:59:03.356Z,42.9
2017-05-28T10:00:11.153Z,38.3
2017-05-28T10:01:18.650Z,38.8
2017-05-28T10:02:26.142Z,40.9
2017-05-28T10:03:33.639Z,40.1
2017-05-28T10:04:41.134Z,41
2017-05-28T10:05:48.927Z,41.4
2017-05-28T10:06:56.426Z,40.5
2017-05-28T10:08:03.927Z,39.7
2017-05-28T10:09:11.423Z,41.1
2017-05-28T10:10:18.918Z,40.5
2017-05-28T10:11:26.738Z,38.3
2017-05-28T10:12:34.249Z,39.6
2017-05-28T10:13:41.740Z,39.7
2017-05-28T10:14:49.235Z,37.2
2017-05-28T10:15:56.729Z,37.6
2017-05-28T10:17:04.527Z,37.1
2017-05-28T10:18:12.025Z,40
2017-05-28T10:19:19.525Z,41
2017-05-28T10:20:27.019Z,40.3
2017-05-28T10:21:34.521Z,37.8
2017-05-28T10:22:41.981Z,40
2017-05-28T10:23:49.475Z,39.8
2017-05-28T10:24:56.644Z,39.4
2017-05-28T10:26:04.197Z,41.6
2017-05-28T10:27:11.692Z,35
2017-05-28T10:28:19.492Z,37.4
2017-05-28T10:29:26.658Z,38.8
2017-05-28T10:30:34.152Z,39.2
2017-05-28T10:31:41.653Z,39.7
2017-05-28T10:32:49.145Z,39.8
2017-05-28T10:33:56.954Z,37.7
2017-05-28T10:35:04.453Z,37.1
2017-05-28T10:36:11.952Z,37.4
2017-05-28T10:37:19.449Z,35.4
2017-05-28T10:38:26.946Z,38.5
2017-05-28T10:39:34.785Z,39
2017-05-28T10:40:42.286Z,37.6
2017-05-28T10:41:49.449Z,36
2017-05-28T10:42:56.942Z,36.3
2017-05-28T10:44:04.434Z,35.6
2017-05-28T10:45:12.228Z,37
2017-05-28T10:46:19.733Z,36.3
2017-05-28T10:47:27.223Z,37.2
2017-05-28T10:48:34.721Z,37.2
2017-05-28T10:49:42.222Z,38.8
2017-05-28T10:50:50.024Z,37.3
2017-05-28T10:51:57.514Z,36.9
2017-05-28T10:53:05.020Z,38.3
2017-05-28T10:54:12.517Z,40
2017-05-28T10:55:20.017Z,38.5
2017-05-28T10:56:27.815Z,38.5
2017-05-28T10:57:35.310Z,38
2017-05-28T10:58:42.824Z,34.9
2017-05-28T10:59:50.320Z,38
2017-05-28T11:00:57.816Z,37.7
2017-05-28T11:02:05.607Z,38.1
2017-05-28T11:03:13.103Z,37.6
2017-05-28T11:04:20.596Z,38
2017-05-28T11:05:28.100Z,34
2017-05-28T11:06:35.589Z,35.4
2017-05-28T11:07:43.061Z,36.3
2017-05-28T11:08:50.557Z,36
2017-05-28T11:09:57.723Z,35.5
2017-05-28T11:11:04.894Z,35.2
2017-05-28T11:12:12.389Z,38.4
2017-05-28T11:13:20.185Z,37.8
2017-05-28T11:14:27.684Z,38
2017-05-28T11:15:35.186Z,36.3
2017-05-28T11:16:42.680Z,36.7
2017-05-28T11:17:49.846Z,36.3
2017-05-28T11:18:57.648Z,35.1
2017-05-28T11:20:05.142Z,34.1
2017-05-28T11:21:12.309Z,35.6
2017-05-28T11:22:19.472Z,36
2017-05-28T11:23:27.127Z,35.6
2017-05-28T11:24:34.919Z,38.6
2017-05-28T11:25:42.412Z,33.4
2017-05-28T11:26:49.913Z,34.3
2017-05-28T11:27:57.414Z,35.5
2017-05-28T11:29:04.966Z,36.9
2017-05-28T11:30:12.757Z,35.6
2017-05-28T11:31:20.253Z,37.7
2017-05-28T11:32:27.426Z,35.7
2017-05-28T11:33:34.923Z,35.2
2017-05-28T11:34:42.419Z,38.9
2017-05-28T11:35:50.264Z,34.3
2017-05-28T11:36:57.758Z,37.5
2017-05-28T11:38:05.251Z,33.6
2017-05-28T11:39:12.747Z,38
2017-05-28T11:40:20.245Z,37.3
2017-05-28T11:41:28.041Z,37
2017-05-28T11:42:35.538Z,33.7
2017-05-28T11:43:43.037Z,37
2017-05-28T11:44:50.535Z,37.8
2017-05-28T11:45:58.031Z,33.6
2017-05-28T11:47:05.888Z,34.7
2017-05-28T11:48:13.386Z,34.4
2017-05-28T11:49:20.886Z,37.2
2017-05-28T11:50:28.383Z,35.9
2017-05-28T11:51:35.890Z,34
2017-05-28T11:52:43.702Z,37.4
2017-05-28T11:53:51.214Z,34.4
2017-05-28T11:54:58.712Z,34.2
2017-05-28T11:56:06.208Z,35.5
2017-05-28T11:57:13.707Z,36.1
2017-05-28T11:58:21.505Z,35.8
2017-05-28T11:59:29.016Z,36.5
2017-05-28T12:00:36.515Z,34
2017-05-28T12:01:44.010Z,35.5
2017-05-28T12:02:51.504Z,37
2017-05-28T12:03:59.303Z,32.4
2017-05-28T12:05:06.798Z,32.7
2017-05-28T12:06:14.301Z,35.3
2017-05-28T12:07:21.466Z,34.8
2017-05-28T12:08:28.961Z,35.1
2017-05-28T12:09:36.763Z,34.9
2017-05-28T12:10:44.271Z,35.3
2017-05-28T12:11:51.436Z,31.9
2017-05-28T12:12:58.941Z,36.8
2017-05-28T12:14:06.441Z,34.3
2017-05-28T12:15:14.241Z,34.9
2017-05-28T12:16:21.737Z,35
2017-05-28T12:17:29.237Z,35
2017-05-28T12:18:36.732Z,33.1
2017-05-28T12:19:44.275Z,33.6
2017-05-28T12:20:52.070Z,35.9
2017-05-28T12:21:59.570Z,36.2
2017-05-28T12:23:07.066Z,35.3
2017-05-28T12:24:14.577Z,32.2
2017-05-28T12:25:22.077Z,34.3
2017-05-28T12:26:29.875Z,35.5
2017-05-28T12:27:37.047Z,33.2
2017-05-28T12:28:44.552Z,33.2
2017-05-28T12:29:52.046Z,32.3
2017-05-28T12:30:59.550Z,36.7
2017-05-28T12:32:07.350Z,33.7
2017-05-28T12:33:14.848Z,36.4
2017-05-28T12:34:22.345Z,31.8
2017-05-28T12:35:29.512Z,33
2017-05-28T12:36:36.680Z,32.3
2017-05-28T12:37:44.475Z,32.5
2017-05-28T12:38:51.875Z,37.9
2017-05-28T12:39:59.376Z,34.5
2017-05-28T12:41:06.875Z,32.5
2017-05-28T12:42:14.370Z,33.2
2017-05-28T12:43:22.169Z,31.6
2017-05-28T12:44:29.667Z,33.6
2017-05-28T12:45:36.834Z,33.9
2017-05-28T12:46:44.332Z,33.3
2017-05-28T12:47:51.501Z,32.9
2017-05-28T12:48:59.325Z,33
2017-05-28T12:50:06.495Z,32.6
2017-05-28T12:51:13.988Z,31
2017-05-28T12:52:21.486Z,31.7
2017-05-28T12:53:28.985Z,33.4
2017-05-28T12:54:36.780Z,33.5
2017-05-28T12:55:44.284Z,30.3
2017-05-28T12:56:51.782Z,33.4
2017-05-28T12:57:59.278Z,34
2017-05-28T12:59:06.445Z,30.2
2017-05-28T13:00:14.244Z,31.8
2017-05-28T13:01:21.741Z,31.7
2017-05-28T13:02:29.239Z,31.1
2017-05-28T13:03:36.737Z,30.6
2017-05-28T13:04:44.238Z,31.8
2017-05-28T13:05:52.039Z,30.6
2017-05-28T13:06:59.534Z,33.5
2017-05-28T13:08:07.032Z,36.7
2017-05-28T13:09:14.526Z,34
2017-05-28T13:10:22.026Z,32.4
2017-05-28T13:11:29.820Z,33.3
2017-05-28T13:12:37.322Z,29.4
2017-05-28T13:13:44.820Z,30
2017-05-28T13:14:52.319Z,32
2017-05-28T13:15:59.818Z,30.9
2017-05-28T13:17:07.617Z,31.7
2017-05-28T13:18:14.782Z,33.6
2017-05-28T13:19:22.280Z,32.3
2017-05-28T13:20:29.773Z,31.8
2017-05-28T13:21:37.268Z,30
2017-05-28T13:22:45.066Z,32.4
2017-05-28T13:23:52.562Z,35.3
2017-05-28T13:25:00.066Z,35.4
2017-05-28T13:26:07.561Z,32.3
2017-05-28T13:27:15.064Z,33.1
2017-05-28T13:28:22.871Z,31.3
2017-05-28T13:29:30.046Z,32.8
2017-05-28T13:30:37.544Z,32.1
2017-05-28T13:31:45.064Z,31.5
2017-05-28T13:32:52.567Z,31.4
2017-05-28T13:34:00.368Z,33.3
2017-05-28T13:36:29.952Z,32.1
2017-05-28T13:37:37.451Z,34.3
2017-05-28T13:38:44.951Z,31.7
2017-05-28T13:39:52.425Z,31.3
2017-05-28T13:40:59.921Z,32.5
2017-05-28T13:42:07.096Z,30.1
2017-05-28T13:43:14.596Z,30.8
2017-05-28T13:44:22.112Z,32.3
2017-05-28T13:45:29.914Z,33.6
2017-05-28T13:46:37.408Z,32.9
2017-05-28T13:47:44.928Z,34
2017-05-28T13:48:52.105Z,32.2
2017-05-28T13:49:59.598Z,33
2017-05-28T13:51:07.395Z,34.2
2017-05-28T13:52:14.899Z,31.8
2017-05-28T13:53:22.399Z,30.1
2017-05-28T13:54:29.893Z,30.5
2017-05-28T13:55:37.394Z,29.6
2017-05-28T13:56:45.243Z,30
2017-05-28T13:57:52.744Z,30
2017-05-28T13:59:00.248Z,34.1
2017-05-28T14:00:07.747Z,32.2
2017-05-28T14:01:15.242Z,32.7
2017-05-28T14:02:23.093Z,31.4
2017-05-28T14:03:30.594Z,32
2017-05-28T14:04:38.094Z,29.9
2017-05-28T14:05:45.598Z,30.8
2017-05-28T14:06:53.097Z,35.3
2017-05-28T14:08:00.933Z,32.8
2017-05-28T14:09:08.429Z,33.4
2017-05-28T14:10:15.922Z,34
2017-05-28T14:11:23.099Z,34.9
2017-05-28T14:12:30.258Z,33.6
2017-05-28T14:13:38.064Z,33.8
2017-05-28T14:14:45.556Z,31.3
2017-05-28T14:15:52.731Z,32.3
2017-05-28T14:17:00.226Z,32.3
2017-05-28T14:18:07.726Z,33.2
2017-05-28T14:19:15.194Z,33.9
2017-05-28T14:20:22.696Z,34
2017-05-28T14:21:30.194Z,31
2017-05-28T14:22:37.694Z,34.1
2017-05-28T14:23:45.198Z,32.8
2017-05-28T14:24:53.054Z,32.9
2017-05-28T14:26:00.552Z,33.3
2017-05-28T14:27:08.049Z,30
2017-05-28T14:28:15.549Z,31.7
2017-05-28T14:29:23.041Z,32.6
2017-05-28T14:30:30.840Z,34
2017-05-28T14:31:38.341Z,32.7
2017-05-28T14:32:45.841Z,30.6
2017-05-28T14:33:53.341Z,32
2017-05-28T14:35:00.836Z,32.1
2017-05-28T14:36:08.636Z,33.1
2017-05-28T14:37:16.136Z,33.6
2017-05-28T14:38:23.635Z,31
2017-05-28T14:39:31.137Z,31.9
2017-05-28T14:40:38.313Z,30.7
2017-05-28T14:41:45.784Z,28.5
2017-05-28T14:42:53.284Z,28.8
2017-05-28T14:44:00.778Z,28.8
2017-05-28T14:45:08.277Z,30.3
2017-05-28T14:46:15.781Z,29.7
2017-05-28T14:47:23.575Z,29.6
2017-05-28T14:48:31.073Z,31.1
2017-05-28T14:49:38.243Z,31.6
2017-05-28T14:50:45.741Z,31.2
2017-05-28T14:51:53.242Z,33.6
2017-05-28T14:53:01.036Z,34.4
2017-05-28T14:54:08.538Z,32.3
2017-05-28T14:55:16.037Z,30.5
2017-05-28T14:56:23.535Z,28.7
2017-05-28T14:57:31.027Z,28.4
2017-05-28T14:58:38.835Z,32.3
2017-05-28T14:59:46.333Z,30
2017-05-28T15:00:53.830Z,32.8
2017-05-28T15:02:00.996Z,30.9
2017-05-28T15:03:08.494Z,32.6
2017-05-28T15:04:16.295Z,29.4
2017-05-28T15:05:23.796Z,27.2
2017-05-28T15:06:31.299Z,28.8
2017-05-28T15:07:38.466Z,26.8
2017-05-28T15:08:46.023Z,27.1
2017-05-28T15:09:53.816Z,27.2